NEODyS-2

Near Earth Objects - Dynamic Site
NEODyS ∴ Observatories ∴ Site 691 ∴ Obs & residuals
Contact »
691  ▹ 
OBSERVATIONS AND RESIDUALS

691-Steward Observatory, Kitt Peak-Spacewatch

Detections | Residuals | Detections & Residuals

[1-200] [201-400] [401-600] [601-800] [801-1000] [1001-1200] [1201-1400] [1401-1600] [1601-1800] [1801-2000] [2001-2200] [2201-2400] [2401-2600] [2601-2800] [2801-3000] [3001-3200] [3201-3400] [3401-3600] [3601-3800] [3801-4000] [4001-4200] [4201-4400] [4401-4600] [4601-4800] [4801-5000] [5001-5200] [5201-5400] [5401-5600] [5601-5800] [5801-6000] [6001-6200] [6201-6400] [6401-6600] [6601-6800] [6801-7000] [7001-7200] [7201-7400] [7401-7600] [7601-7800] [7801-8000] [8001-8200] [8201-8400] [8401-8600] [8601-8800] [8801-9000] [9001-9200] [9201-9400] [9401-9600] [9601-9800] [9801-10000] [10001-10200] [10201-10400] [10401-10600] [10601-10800] [10801-11000] [11001-11200] [11201-11400] [11401-11600] [11601-11800] [11801-12000] [12001-12200] [12201-12400] [12401-12600] [12601-12800] [12801-13000] [13001-13200] [13201-13400] [13401-13600] [13601-13800] [13801-14000] [14001-14200] [14201-14400] [14401-14600] [14601-14800] [14801-15000] [15001-15200] [15201-15400] [15401-15600] [15601-15800] [15801-16000] [16001-16200] [16201-16400] [16401-16600] [16601-16800] [16801-17000] [17001-17200] [17201-17400] [17401-17600] [17601-17800] [17801-18000] [18001-18200] [18201-18400] [18401-18600] [18601-18800] [18801-19000] [19001-19200] [19201-19400] [19401-19600] [19601-19800] [19801-20000] [20001-20200] [20201-20400] [20401-20600] [20601-20800] [20801-21000] [21001-21200] [21201-21400] [21401-21600] [21601-21800] [21801-22000] [22001-22200] [22201-22400] [22401-22600] [22601-22800] [22801-23000] [23001-23200] [23201-23400] [23401-23600] [23601-23800] [23801-24000] [24001-24200] [24201-24400] [24401-24600] [24601-24800] [24801-25000] [25001-25200] [25201-25400] [25401-25600] [25601-25800] [25801-26000] [26001-26200] [26201-26400] [26401-26600] [26601-26800] [26801-27000] [27001-27200] [27201-27400] [27401-27600] [27601-27800] [27801-28000] [28001-28200] [28201-28400] [28401-28600] [28601-28800] [28801-29000] [29001-29200] [29201-29400] [29401-29600] [29601-29800] [29801-30000] [30001-30200] [30201-30400] [30401-30600] [30601-30800] [30801-31000] [31001-31200] [31201-31400] [31401-31600] [31601-31800] [31801-32000] [32001-32200] [32201-32400] [32401-32600] [32601-32800] [32801-33000] [33001-33200] [33201-33400] [33401-33600] [33601-33800] [33801-34000] [34001-34200] [34201-34400] [34401-34600] [34601-34800] [34801-35000] [35001-35200] [35201-35400] [35401-35600] [35601-35800] [35801-36000] [36001-36200] [36201-36400] [36401-36600] [36601-36800] [36801-37000] [37001-37200] [37201-37400] [37401-37600] [37601-37800] [37801-38000] [38001-38200] [38201-38400] [38401-38600] [38601-38800] [38801-39000] [39001-39200] [39201-39400] [39401-39600] [39601-39800] [39801-40000] [40001-40200] [40201-40400] [40401-40600] [40601-40800] [40801-41000] [41001-41200] [41201-41400] [41401-41600] [41601-41800] [41801-42000] [42001-42200] [42201-42400] [42401-42600] [42601-42800] [42801-43000] [43001-43200] [43201-43400] [43401-43600] [43601-43800] [43801-44000] [44001-44200] [44201-44400] [44401-44600] [44601-44800] [44801-45000] [45001-45200] [45201-45400] [45401-45600] [45601-45800] [45801-46000] [46001-46200] [46201-46400] [46401-46600] [46601-46800] [46801-47000] [47001-47200] [47201-47400] [47401-47600] [47601-47800] [47801-48000] [48001-48200] [48201-48400] [48401-48600] [48601-48800] [48801-49000] [49001-49200] [49201-49400] [49401-49600] [49601-49800] [49801-50000] [50001-50200] [50201-50388]

Designation T Tech N Date Right Ascension Declination Apparent Magnitude Star Catalog Site code χ Used A Used M
yr-mo-day precision hr:min:sec precision rms F bias residual deg min sec precision rms F bias residual mag/col rms residual
1999FP59 O C 2010-03-13.25845 1.000E-05 12:31:36.150 1.500E-01 0.500 F 0.181 -0.573 -02° 09' 45.90" 1.000E-01 0.500 F 0.152 -0.134 20.5 V 0.70 0.29 o 691 1.18 Yes Yes
1999FP59 O C 2010-03-13.27606 1.000E-05 12:31:34.900 1.500E-01 0.500 F 0.181 -0.133 -02° 09' 39.00" 1.000E-01 0.500 F 0.152 -0.276 20.4 V 0.70 0.19 o 691 0.61 Yes Yes
1999FP59 O C 2010-03-13.29367 1.000E-05 12:31:33.590 1.500E-01 0.500 F 0.181 -0.540 -02° 09' 32.10" 1.000E-01 0.500 F 0.152 -0.424 20.3 V 0.70 0.09 o 691 1.37 Yes Yes
2007MR O C t 2010-03-13.36530 1.000E-05 13:55:03.560 1.500E-01 0.500 F 0.120 0.190 -08° 13' 34.90" 1.000E-01 0.500 F 0.086 -0.399 21.4 V 0.70 0.54 o 691 0.90 Yes Yes
2005YU55 O C H 2010-03-13.37294 1.000E-05 13:44:57.740 1.500E-01 0.500 F 0.184 -0.439 -09° 28' 36.40" 1.000E-01 0.500 F 0.071 -0.130 20.8 V 0.70 -0.03 o 691 0.92 Yes Yes
2007MR O C t 2010-03-13.38294 1.000E-05 13:55:01.430 1.500E-01 0.500 F 0.120 -0.665 -08° 13' 03.80" 1.000E-01 0.500 F 0.086 -0.565 21.1 V 0.70 0.24 o 691 1.78 Yes Yes
2005YU55 O C H 2010-03-13.39058 1.000E-05 13:44:57.930 1.500E-01 0.500 F 0.184 -0.767 -09° 28' 38.40" 1.000E-01 0.500 F 0.071 -0.992 20.6 V 0.70 -0.23 o 691 2.51 Yes Yes
2007MR O C t 2010-03-13.40059 1.000E-05 13:54:59.350 1.500E-01 0.500 F 0.120 -0.667 -08° 12' 32.20" 1.000E-01 0.500 F 0.086 -0.310 20.8 V 0.70 -0.06 o 691 1.50 Yes Yes
2005YU55 O C H 2010-03-13.40823 1.000E-05 13:44:58.220 1.500E-01 0.500 F 0.184 0.431 -09° 28' 39.30" 1.000E-01 0.500 F 0.071 -0.808 o 691 1.83 Yes No
2010EX11 O C t 2010-03-13.48584 1.000E-05 15:07:58.300 1.500E-01 0.500 F 0.048 0.144 +52° 26' 21.50" 1.000E-01 0.500 F 0.204 -0.716 18.6 V 0.70 -0.68 o 691 1.50 Yes Yes
2010EX11 O C t 2010-03-13.48875 1.000E-05 15:07:53.820 1.500E-01 0.500 F 0.048 0.149 +52° 26' 10.80" 1.000E-01 0.500 F 0.204 -0.591 18.7 V 0.70 -0.57 o 691 1.25 Yes Yes
2010EX11 O C t 2010-03-13.49184 1.000E-05 15:07:48.990 1.500E-01 0.500 F 0.048 -0.515 +52° 25' 59.10" 1.000E-01 0.500 F 0.204 -0.724 18.6 V 0.70 -0.67 o 691 1.84 Yes Yes
2003HW11 O C H 2010-03-14.23418 1.000E-05 12:43:49.120 1.500E-01 0.500 F 0.125 -0.483 +02° 27' 06.30" 1.000E-01 0.500 F 0.079 -0.298 o 691 1.14 Yes No
2010EQ43 O C 2010-03-14.24418 1.000E-05 12:49:37.740 1.500E-01 0.500 F 0.143 -0.243 +00° 02' 45.80" 1.000E-01 0.500 F 0.190 -0.264 20.9 V 0.70 0.48 o 691 0.72 Yes Yes
2003HW11 O C H 2010-03-14.25181 1.000E-05 12:43:48.250 1.500E-01 0.500 F 0.125 0.170 +02° 27' 16.10" 1.000E-01 0.500 F 0.079 -0.799 o 691 1.64 Yes No
2010EQ43 O C 2010-03-14.26180 1.000E-05 12:49:35.480 1.500E-01 0.500 F 0.143 0.414 +00° 02' 31.20" 1.000E-01 0.500 F 0.190 -0.062 20.1 V 0.70 -0.32 o 691 0.84 Yes Yes
2006SL198 O C H 2010-03-14.26426 1.000E-05 12:56:40.550 1.500E-01 0.500 F 0.277 -1.613 +00° 09' 58.30" 1.000E-01 0.500 F 0.299 0.362 21.0 V 0.70 -0.56 o 691 3.28 No Yes
2010EQ43 O C 2010-03-14.27943 1.000E-05 12:49:33.140 1.500E-01 0.500 F 0.143 -0.035 +00° 02' 16.30" 1.000E-01 0.500 F 0.190 -0.147 20.4 V 0.70 -0.02 o 691 0.31 Yes Yes
2006SL198 O C H 2010-03-14.28189 1.000E-05 12:56:39.460 1.500E-01 0.500 F 0.277 -1.753 +00° 10' 12.50" 1.000E-01 0.500 F 0.299 -0.161 20.8 V 0.70 -0.76 o 691 3.50 No Yes
2004RK O C t 2010-03-14.35629 1.000E-05 13:57:16.720 1.500E-01 0.500 F 0.208 0.362 -06° 25' 11.60" 1.000E-01 0.500 F 0.125 -0.504 o 691 1.25 Yes No
2004SX O C H 2010-03-14.37130 1.000E-05 14:07:09.140 1.500E-01 0.500 F 0.227 0.853 -05° 26' 49.00" 1.000E-01 0.500 F 0.088 -2.178 21.0 V 0.70 -0.10 o 691 4.65 No Yes
2004RK O C t 2010-03-14.37391 1.000E-05 13:57:15.610 1.500E-01 0.500 F 0.208 0.101 -06° 24' 21.40" 1.000E-01 0.500 F 0.125 -0.401 o 691 0.83 Yes No
2004SX O C H 2010-03-14.38892 1.000E-05 14:07:08.380 1.500E-01 0.500 F 0.227 0.104 -05° 26' 28.70" 1.000E-01 0.500 F 0.088 -0.358 21.5 V 0.70 0.40 o 691 0.75 Yes Yes
2004RK O C H 2010-03-14.39155 1.000E-05 13:57:14.520 1.500E-01 0.500 F 0.208 0.231 -06° 23' 31.60" 1.000E-01 0.500 F 0.125 -0.784 o 691 1.64 Yes No
1994CN2 O C t 2010-03-15.19849 1.000E-05 11:54:15.580 1.500E-01 0.500 F 0.198 0.713 +03° 25' 25.80" 1.000E-01 0.500 F 0.186 -0.699 19.1 V 0.70 0.04 o 691 2.00 Yes Yes
1996HW1 O C 2010-03-15.20357 1.000E-05 11:48:32.430 1.500E-01 0.500 F 0.280 -0.590 +00° 58' 42.50" 1.000E-01 0.500 F 0.172 0.332 19.6 V 0.70 0.39 o 691 1.36 Yes Yes
1994CN2 O C H 2010-03-15.21612 1.000E-05 11:54:14.010 1.500E-01 0.500 F 0.198 0.509 +03° 25' 36.20" 1.000E-01 0.500 F 0.186 -0.595 o 691 1.57 Yes No
1996HW1 O C 2010-03-15.22121 1.000E-05 11:48:31.340 1.500E-01 0.500 F 0.280 -0.574 +00° 58' 51.20" 1.000E-01 0.500 F 0.172 -0.098 19.5 V 0.70 0.29 o 691 1.17 Yes Yes
1994CN2 O C t 2010-03-15.23723 1.000E-05 11:54:12.160 1.500E-01 0.500 F 0.198 0.780 +03° 25' 48.20" 1.000E-01 0.500 F 0.186 -0.918 19.1 V 0.70 0.05 o 691 2.41 Yes Yes
1996HW1 O C 2010-03-15.24230 1.000E-05 11:48:30.070 1.500E-01 0.500 F 0.280 -0.020 +00° 59' 03.10" 1.000E-01 0.500 F 0.172 0.887 19.1 V 0.70 -0.11 o 691 1.77 Yes Yes
1996EO O C 2010-03-15.25205 1.000E-05 12:35:18.000 1.500E-01 0.500 F 0.182 0.348 -07° 46' 24.00" 1.000E-01 0.500 F 0.074 0.416 19.1 V 0.70 0.57 o 691 1.11 Yes Yes
1996EO O C 2010-03-15.26972 1.000E-05 12:35:13.610 1.500E-01 0.500 F 0.182 0.178 -07° 46' 43.10" 1.000E-01 0.500 F 0.074 0.342 19.1 V 0.70 0.57 o 691 0.79 Yes Yes
1996EO O C 2010-03-15.28740 1.000E-05 12:35:09.220 1.500E-01 0.500 F 0.182 0.152 -07° 47' 02.00" 1.000E-01 0.500 F 0.074 0.438 19.1 V 0.70 0.57 o 691 0.95 Yes Yes
2000SV20 O C H 2010-03-16.17729 1.000E-05 11:56:17.250 1.500E-01 0.500 F 0.106 -0.201 +05° 15' 41.10" 1.000E-01 0.500 F 0.176 -0.560 21.1 V 0.70 0.51 o 691 1.21 Yes Yes
1994CN2 O C 2010-03-16.18492 1.000E-05 11:52:50.140 1.500E-01 0.500 F 0.286 -0.387 +03° 35' 00.90" 1.000E-01 0.500 F 0.207 -0.110 19.6 V 0.70 0.58 o 691 0.80 Yes Yes
2000SV20 O C H 2010-03-16.19494 1.000E-05 11:56:14.860 1.500E-01 0.500 F 0.106 -0.895 +05° 15' 35.70" 1.000E-01 0.500 F 0.176 -0.062 21.0 V 0.70 0.41 o 691 1.82 Yes Yes
1994CN2 O C 2010-03-16.20257 1.000E-05 11:52:48.580 1.500E-01 0.500 F 0.286 -0.328 +03° 35' 11.40" 1.000E-01 0.500 F 0.207 0.081 19.5 V 0.70 0.48 o 691 0.68 Yes Yes
2000SV20 O C H 2010-03-16.21258 1.000E-05 11:56:12.530 1.500E-01 0.500 F 0.106 -0.642 +05° 15' 29.90" 1.000E-01 0.500 F 0.176 0.040 21.0 V 0.70 0.42 o 691 1.31 Yes Yes
1994CN2 O C 2010-03-16.22021 1.000E-05 11:52:47.010 1.500E-01 0.500 F 0.286 -0.377 +03° 35' 21.70" 1.000E-01 0.500 F 0.207 0.081 19.6 V 0.70 0.58 o 691 0.77 Yes Yes
2010FO28 O C 2010-03-16.24437 1.000E-05 12:37:29.020 1.500E-01 0.500 F 0.150 -0.168 -05° 48' 15.00" 1.000E-01 0.500 F 0.132 0.592 20.0 V 0.70 -0.19 o 691 1.24 Yes Yes
2010FO28 O C 2010-03-16.26201 1.000E-05 12:37:28.210 1.500E-01 0.500 F 0.150 0.304 -05° 47' 50.40" 1.000E-01 0.500 F 0.132 -0.042 20.5 V 0.70 0.31 o 691 0.63 Yes Yes
2010FO28 O C 2010-03-16.27964 1.000E-05 12:37:27.320 1.500E-01 0.500 F 0.150 -0.319 -05° 47' 24.80" 1.000E-01 0.500 F 0.132 0.322 20.4 V 0.70 0.21 o 691 0.93 Yes Yes
2004FE31 O C H 2010-03-16.35967 1.000E-05 13:47:14.170 1.500E-01 0.500 F 0.191 -1.122 -13° 43' 12.00" 1.000E-01 0.500 F 0.119 -0.880 o 691 2.86 Yes No
2005SC71 O C H 2010-03-16.36215 1.000E-05 13:55:29.950 1.500E-01 0.500 F 0.189 -0.045 -14° 01' 57.30" 1.000E-01 0.500 F 0.188 -0.823 o 691 1.65 Yes No
2004FE31 O C H 2010-03-16.37738 1.000E-05 13:47:13.410 1.500E-01 0.500 F 0.191 0.405 -13° 43' 01.50" 1.000E-01 0.500 F 0.119 -0.047 o 691 0.82 Yes No
2005SC71 O C H 2010-03-16.37986 1.000E-05 13:55:29.520 1.500E-01 0.500 F 0.189 -0.498 -14° 01' 35.90" 1.000E-01 0.500 F 0.188 -0.267 21.2 V 0.70 0.19 o 691 1.14 Yes Yes
2005SC71 O C H 2010-03-16.39756 1.000E-05 13:55:29.170 1.500E-01 0.500 F 0.189 0.234 -14° 01' 15.60" 1.000E-01 0.500 F 0.188 -0.831 21.1 V 0.70 0.09 o 691 1.73 Yes Yes
Toutatis O C H 2010-03-16.40925 1.000E-05 14:08:49.090 1.500E-01 0.500 F 0.326 -0.361 -12° 24' 48.50" 1.000E-01 0.500 F 0.100 -0.707 21.1 V 0.70 0.01 o 691 1.59 Yes Yes
Toutatis O C H 2010-03-16.44471 1.000E-05 14:08:47.730 1.500E-01 0.500 F 0.326 -0.688 -12° 24' 41.30" 1.000E-01 0.500 F 0.100 -0.583 21.4 V 0.70 0.31 o 691 1.80 Yes Yes
1995SA O C 2010-03-17.14480 1.000E-05 05:47:29.800 1.500E-01 0.500 F -0.083 -0.056 +04° 40' 15.30" 1.000E-01 0.500 F 0.125 0.009 20.2 V 0.70 -0.04 o 691 0.11 Yes Yes
1995SA O C 2010-03-17.15548 1.000E-05 05:47:30.240 1.500E-01 0.500 F -0.083 -0.104 +04° 40' 26.60" 1.000E-01 0.500 F 0.125 -0.180 20.0 V 0.70 -0.24 o 691 0.42 Yes Yes
1995SA O C 2010-03-17.16614 1.000E-05 05:47:30.680 1.500E-01 0.500 F -0.083 -0.159 +04° 40' 38.00" 1.000E-01 0.500 F 0.125 -0.245 20.0 V 0.70 -0.24 o 691 0.58 Yes Yes
Kadlu O C 2010-03-17.18588 1.000E-05 11:46:09.710 1.500E-01 0.500 F 0.144 -0.255 +07° 31' 53.90" 1.000E-01 0.500 F 0.183 0.035 19.9 V 0.70 0.98 o 691 0.52 Yes Yes
Kadlu O C 2010-03-17.20353 1.000E-05 11:46:08.520 1.500E-01 0.500 F 0.144 -0.156 +07° 32' 03.50" 1.000E-01 0.500 F 0.183 -0.304 19.9 V 0.70 0.98 o 691 0.69 Yes Yes
Kadlu O C 2010-03-17.22119 1.000E-05 11:46:07.310 1.500E-01 0.500 F 0.144 -0.286 +07° 32' 13.50" 1.000E-01 0.500 F 0.183 -0.241 20.0 V 0.70 1.08 o 691 0.75 Yes Yes
2010EQ43 O C 2010-03-17.23783 1.000E-05 12:42:56.590 1.500E-01 0.500 F 0.119 -1.718 -00° 40' 16.80" 1.000E-01 0.500 F 0.201 -1.681 19.9 V 0.70 -0.35 o 691 4.78 No Yes
1999FP59 O C 2010-03-17.24054 1.000E-05 12:26:44.850 1.500E-01 0.500 F 0.174 -0.475 -01° 42' 01.70" 1.000E-01 0.500 F 0.158 -0.212 20.2 V 0.70 0.16 o 691 1.04 Yes Yes
2016AF165 O C 2010-03-17.24793 1.000E-05 12:42:20.090 1.500E-01 0.500 F 0.125 -0.285 -02° 18' 01.80" 1.000E-01 0.500 F 0.099 -0.072 20.4 V 0.70 0.19 o 691 0.62 Yes Yes
2010EQ43 O C 2010-03-17.25548 1.000E-05 12:42:54.130 1.500E-01 0.500 F 0.119 -1.047 -00° 40' 30.50" 1.000E-01 0.500 F 0.201 0.239 20.7 V 0.70 0.45 o 691 2.16 Yes Yes
1999FP59 O C 2010-03-17.25819 1.000E-05 12:26:43.470 1.500E-01 0.500 F 0.174 -0.360 -01° 41' 53.80" 1.000E-01 0.500 F 0.158 0.049 20.0 V 0.70 -0.03 o 691 0.73 Yes Yes
2016AF165 O C 2010-03-17.26558 1.000E-05 12:42:19.270 1.500E-01 0.500 F 0.125 0.207 -02° 18' 07.70" 1.000E-01 0.500 F 0.099 -0.200 20.3 V 0.70 0.09 o 691 0.63 Yes Yes
2010EQ43 O C 2010-03-17.27313 1.000E-05 12:42:51.690 1.500E-01 0.500 F 0.119 -0.004 -00° 40' 46.70" 1.000E-01 0.500 F 0.201 -0.337 20.3 V 0.70 0.05 o 691 0.68 Yes Yes
1999FP59 O C 2010-03-17.27583 1.000E-05 12:26:42.100 1.500E-01 0.500 F 0.174 -0.053 -01° 41' 46.20" 1.000E-01 0.500 F 0.158 0.009 19.9 V 0.70 -0.13 o 691 0.11 Yes Yes
2016AF165 O C 2010-03-17.28324 1.000E-05 12:42:18.390 1.500E-01 0.500 F 0.125 -0.093 -02° 18' 13.40" 1.000E-01 0.500 F 0.099 -0.135 20.3 V 0.70 0.09 o 691 0.33 Yes Yes
2010EC135 O C 2010-03-17.28989 1.000E-05 13:34:28.340 1.500E-01 0.500 F 0.140 -0.185 -02° 08' 03.20" 1.000E-01 0.500 F 0.029 0.114 21.0 V 0.70 -0.07 o 691 0.44 Yes Yes
2010EC135 O C 2010-03-17.30754 1.000E-05 13:34:28.630 1.500E-01 0.500 F 0.140 -0.130 -02° 07' 52.60" 1.000E-01 0.500 F 0.029 0.054 21.3 V 0.70 0.23 o 691 0.28 Yes Yes
2010EC135 O C 2010-03-17.32518 1.000E-05 13:34:28.880 1.500E-01 0.500 F 0.140 -0.589 -02° 07' 42.00" 1.000E-01 0.500 F 0.029 -0.012 20.7 V 0.70 -0.37 o 691 1.18 Yes Yes
2005YU55 O C H 2010-03-17.35675 1.000E-05 13:46:05.730 1.500E-01 0.500 F 0.184 0.024 -09° 30' 25.20" 1.000E-01 0.500 F 0.071 0.374 20.8 V 0.70 0.35 o 691 0.75 Yes Yes
2005YU55 O C H 2010-03-17.37445 1.000E-05 13:46:05.730 1.500E-01 0.500 F 0.184 -0.044 -09° 30' 25.90" 1.000E-01 0.500 F 0.071 -0.359 20.7 V 0.70 0.26 o 691 0.72 Yes Yes
2005YU55 O C H 2010-03-17.39212 1.000E-05 13:46:05.740 1.500E-01 0.500 F 0.184 0.103 -09° 30' 25.50" 1.000E-01 0.500 F 0.071 -0.054 20.8 V 0.70 0.36 o 691 0.23 Yes Yes
1995SA O C H 2010-03-18.13108 1.000E-05 05:48:14.260 1.500E-01 0.500 F -0.071 -0.151 +04° 57' 57.40" 1.000E-01 0.500 F 0.136 -0.126 20.3 V 0.70 0.06 o 691 0.39 Yes Yes
1995SA O C H 2010-03-18.14714 1.000E-05 05:48:14.960 1.500E-01 0.500 F -0.071 -0.241 +04° 58' 14.60" 1.000E-01 0.500 F 0.136 -0.190 20.3 V 0.70 0.06 o 691 0.61 Yes Yes
1995SA O C H 2010-03-18.16319 1.000E-05 05:48:15.700 1.500E-01 0.500 F -0.071 0.232 +04° 58' 31.60" 1.000E-01 0.500 F 0.136 -0.438 o 691 0.99 Yes No
2010CM44 O C H 2010-03-18.24343 1.000E-05 12:44:37.720 1.500E-01 0.500 F 0.133 -0.180 +01° 49' 49.70" 1.000E-01 0.500 F 0.148 0.003 17.6 V 0.70 0.17 o 691 0.36 Yes Yes
2006SL198 O C H 2010-03-18.25344 1.000E-05 12:52:34.630 1.500E-01 0.500 F 0.245 -0.797 +01° 06' 01.00" 1.000E-01 0.500 F 0.244 -0.480 o 691 1.87 Yes No
2010CM44 O C H 2010-03-18.26108 1.000E-05 12:44:38.410 1.500E-01 0.500 F 0.133 -0.223 +01° 49' 18.40" 1.000E-01 0.500 F 0.148 0.050 17.5 V 0.70 0.07 o 691 0.46 Yes Yes
2006SL198 O C H 2010-03-18.27111 1.000E-05 12:52:33.490 1.500E-01 0.500 F 0.245 -0.545 +01° 06' 16.90" 1.000E-01 0.500 F 0.244 0.408 o 691 1.37 Yes No
2010CM44 O C H 2010-03-18.27876 1.000E-05 12:44:39.140 1.500E-01 0.500 F 0.133 0.519 +01° 48' 46.30" 1.000E-01 0.500 F 0.148 -0.623 o 691 1.64 Yes No
2006SL198 O C H 2010-03-18.28878 1.000E-05 12:52:32.420 1.500E-01 0.500 F 0.245 0.794 +01° 06' 31.30" 1.000E-01 0.500 F 0.244 -0.204 o 691 1.65 Yes No
2004SX O C 2010-03-18.35752 1.000E-05 14:04:22.410 1.500E-01 0.500 F 0.126 -0.238 -04° 15' 24.70" 1.000E-01 0.500 F 0.124 -0.192 21.0 V 0.70 -0.02 o 691 0.62 Yes Yes
2004SX O C 2010-03-18.37518 1.000E-05 14:04:21.510 1.500E-01 0.500 F 0.126 -0.575 -04° 15' 05.60" 1.000E-01 0.500 F 0.124 -0.436 21.0 V 0.70 -0.02 o 691 1.46 Yes Yes
2004SX O C 2010-03-18.39287 1.000E-05 14:04:20.650 1.500E-01 0.500 F 0.126 -0.261 -04° 14' 45.90" 1.000E-01 0.500 F 0.124 -0.123 20.8 V 0.70 -0.22 o 691 0.58 Yes Yes
2008DK5 O C H 2010-03-18.41597 1.000E-05 13:57:29.660 1.500E-01 0.500 F 0.077 -0.492 -17° 05' 08.50" 1.000E-01 0.500 F 0.072 0.213 21.0 V 0.70 -0.74 o 691 1.07 Yes Yes
2001WN5 O C 2010-03-18.41845 1.000E-05 14:04:50.250 1.500E-01 0.500 F 0.182 -0.094 -16° 34' 41.10" 1.000E-01 0.500 F 0.020 0.517 20.3 V 0.70 -0.23 o 691 1.05 Yes Yes
2008DK5 O C H 2010-03-18.43366 1.000E-05 13:57:26.430 1.500E-01 0.500 F 0.077 0.699 -17° 04' 57.50" 1.000E-01 0.500 F 0.072 0.313 21.2 V 0.70 -0.54 o 691 1.54 Yes Yes
2001WN5 O C 2010-03-18.43614 1.000E-05 14:04:49.720 1.500E-01 0.500 F 0.182 -0.360 -16° 34' 40.90" 1.000E-01 0.500 F 0.020 0.626 20.0 V 0.70 -0.53 o 691 1.45 Yes Yes
2008DK5 O C H 2010-03-18.45137 1.000E-05 13:57:23.040 1.500E-01 0.500 F 0.077 -0.380 -17° 04' 46.40" 1.000E-01 0.500 F 0.072 0.443 21.2 V 0.70 -0.54 o 691 1.17 Yes Yes
2001WN5 O C 2010-03-18.45383 1.000E-05 14:04:49.200 1.500E-01 0.500 F 0.182 -0.486 -16° 34' 41.20" 1.000E-01 0.500 F 0.020 0.204 20.6 V 0.70 0.07 o 691 1.06 Yes Yes
1997TD O C 2010-03-19.18447 1.000E-05 12:32:01.430 1.500E-01 0.500 F 0.155 -0.469 +05° 19' 13.70" 1.000E-01 0.500 F 0.156 -0.126 20.7 V 0.70 0.88 o 691 0.97 Yes Yes
1997TD O C 2010-03-19.20215 1.000E-05 12:32:00.430 1.500E-01 0.500 F 0.155 -0.406 +05° 19' 24.50" 1.000E-01 0.500 F 0.156 -0.071 19.9 V 0.70 0.08 o 691 0.83 Yes Yes
1997TD O C 2010-03-19.21982 1.000E-05 12:31:59.430 1.500E-01 0.500 F 0.155 -0.311 +05° 19' 35.20" 1.000E-01 0.500 F 0.156 -0.108 20.2 V 0.70 0.38 o 691 0.66 Yes Yes
1997SE5 O C H 2010-03-19.23681 1.000E-05 12:41:09.460 1.500E-01 0.500 F 0.192 0.227 -07° 52' 10.90" 1.000E-01 0.500 F 0.076 0.409 21.3 V 0.70 -0.39 o 691 0.94 Yes Yes
1997SE5 O C H 2010-03-19.25449 1.000E-05 12:41:08.750 1.500E-01 0.500 F 0.192 -0.724 -07° 52' 07.80" 1.000E-01 0.500 F 0.076 -0.217 21.3 V 0.70 -0.39 o 691 1.52 Yes Yes
1997SE5 O C H 2010-03-19.26978 1.000E-05 12:41:08.280 1.500E-01 0.500 F 0.192 0.605 -07° 52' 05.30" 1.000E-01 0.500 F 0.076 -0.941 o 691 2.24 Yes No
2010FD7 O C 2010-03-19.29153 1.000E-05 13:26:34.740 1.500E-01 0.500 F 0.243 -0.150 -12° 04' 13.20" 1.000E-01 0.500 F 0.052 -0.733 20.6 V 0.70 -0.42 o 691 1.51 Yes Yes
2010FD7 O C 2010-03-19.30922 1.000E-05 13:26:36.120 1.500E-01 0.500 F 0.243 0.073 -12° 04' 49.70" 1.000E-01 0.500 F 0.052 -0.027 21.3 V 0.70 0.28 o 691 0.16 Yes Yes
2010FD7 O C 2010-03-19.32690 1.000E-05 13:26:37.480 1.500E-01 0.500 F 0.243 0.129 -12° 05' 27.20" 1.000E-01 0.500 F 0.052 -0.357 20.7 V 0.70 -0.32 o 691 0.78 Yes Yes
2002CQ11 O C H 2010-03-19.43125 1.000E-05 14:25:54.500 1.500E-01 0.500 F 0.103 -0.307 -06° 40' 16.60" 1.000E-01 0.500 F 0.047 0.247 20.2 V 0.70 0.27 o 691 0.79 Yes Yes
2002CQ11 O C H 2010-03-19.44892 1.000E-05 14:25:53.240 1.500E-01 0.500 F 0.103 0.007 -06° 40' 04.20" 1.000E-01 0.500 F 0.047 0.103 20.4 V 0.70 0.47 o 691 0.21 Yes Yes
2000SV20 O C H 2010-03-20.17996 1.000E-05 11:47:40.440 1.500E-01 0.500 F 0.174 1.317 +04° 52' 43.00" 1.000E-01 0.500 F 0.292 -0.135 21.1 V 0.70 0.46 o 691 2.70 Yes Yes
1994CN2 O C 2010-03-20.19008 1.000E-05 11:47:00.660 1.500E-01 0.500 F 0.267 -0.129 +04° 13' 40.90" 1.000E-01 0.500 F 0.289 -0.157 19.5 V 0.70 0.43 o 691 0.41 Yes Yes
2000SV20 O C H 2010-03-20.19764 1.000E-05 11:47:38.080 1.500E-01 0.500 F 0.174 0.292 +04° 52' 37.30" 1.000E-01 0.500 F 0.292 0.326 21.3 V 0.70 0.66 o 691 0.88 Yes Yes
1994CN2 O C 2010-03-20.20776 1.000E-05 11:46:59.060 1.500E-01 0.500 F 0.267 -0.397 +04° 13' 51.10" 1.000E-01 0.500 F 0.289 -0.138 19.5 V 0.70 0.43 o 691 0.84 Yes Yes
2000SV20 O C H 2010-03-20.21532 1.000E-05 11:47:35.770 1.500E-01 0.500 F 0.174 0.071 +04° 52' 30.00" 1.000E-01 0.500 F 0.292 -0.806 o 691 1.66 Yes No
1994CN2 O C 2010-03-20.22544 1.000E-05 11:46:57.490 1.500E-01 0.500 F 0.267 -0.171 +04° 14' 01.20" 1.000E-01 0.500 F 0.289 -0.213 19.4 V 0.70 0.33 o 691 0.55 Yes Yes
2010FO28 O C 2010-03-20.24246 1.000E-05 12:34:31.890 1.500E-01 0.500 F 0.129 0.169 -04° 12' 37.00" 1.000E-01 0.500 F 0.200 -0.040 20.2 V 0.70 0.11 o 691 0.36 Yes Yes
2006FV35 O C t 2010-03-20.24493 1.000E-05 12:46:11.440 1.500E-01 0.500 F 0.085 2.341 -03° 22' 28.10" 1.000E-01 0.500 F 0.124 -1.385 21.1 V 0.70 0.23 o 691 5.42 No Yes
2010FP9 O C 2010-03-20.24493 1.000E-05 12:40:35.710 1.500E-01 0.500 F 0.203 0.010 -03° 46' 30.60" 1.000E-01 0.500 F 0.120 -0.534 20.7 V 0.70 -0.25 o 691 1.17 Yes Yes
Anza O C H 2010-03-20.24755 1.000E-05 12:27:03.520 1.500E-01 0.500 F 0.092 0.151 -05° 04' 04.40" 1.000E-01 0.500 F 0.081 -0.905 21.5 V 0.70 0.16 o 691 1.83 Yes Yes
2010FO28 O C 2010-03-20.26014 1.000E-05 12:34:30.960 1.500E-01 0.500 F 0.129 -0.304 -04° 12' 11.70" 1.000E-01 0.500 F 0.200 0.068 20.4 V 0.70 0.31 o 691 0.64 Yes Yes
2006FV35 O C t 2010-03-20.26261 1.000E-05 12:46:08.510 1.500E-01 0.500 F 0.085 0.514 -03° 21' 53.60" 1.000E-01 0.500 F 0.124 -0.158 21.5 V 0.70 0.64 o 691 1.08 Yes Yes
2010FP9 O C 2010-03-20.26261 1.000E-05 12:40:35.130 1.500E-01 0.500 F 0.203 -0.379 -03° 47' 10.60" 1.000E-01 0.500 F 0.120 0.127 20.3 V 0.70 -0.65 o 691 0.84 Yes Yes
Anza O C H 2010-03-20.26523 1.000E-05 12:27:02.530 1.500E-01 0.500 F 0.092 -0.052 -05° 03' 58.00" 1.000E-01 0.500 F 0.081 -1.102 21.7 V 0.70 0.36 o 691 2.21 Yes Yes
2010FO28 O C 2010-03-20.27783 1.000E-05 12:34:30.050 1.500E-01 0.500 F 0.129 -0.380 -04° 11' 46.20" 1.000E-01 0.500 F 0.200 0.353 20.4 V 0.70 0.31 o 691 1.06 Yes Yes
2006FV35 O C t 2010-03-20.28029 1.000E-05 12:46:05.740 1.500E-01 0.500 F 0.085 1.233 -03° 21' 21.40" 1.000E-01 0.500 F 0.124 -1.258 21.3 V 0.70 0.44 o 691 3.51 No Yes
2010FP9 O C 2010-03-20.28029 1.000E-05 12:40:34.580 1.500E-01 0.500 F 0.203 -0.056 -03° 47' 51.60" 1.000E-01 0.500 F 0.120 -0.234 20.7 V 0.70 -0.25 o 691 0.53 Yes Yes
Anza O C H 2010-03-20.28291 1.000E-05 12:27:01.590 1.500E-01 0.500 F 0.092 0.509 -05° 03' 51.00" 1.000E-01 0.500 F 0.081 -0.704 o 691 1.73 Yes No
2010FF10 O C 2010-03-20.30918 1.000E-05 13:38:04.130 1.500E-01 0.500 F 0.213 0.383 -03° 46' 23.20" 1.000E-01 0.500 F -0.005 -0.152 21.2 V 0.70 -0.18 o 691 0.83 Yes Yes
2010FO92 O C 2010-03-20.31165 1.000E-05 13:39:28.370 1.500E-01 0.500 F 0.235 -0.263 -03° 06' 07.40" 1.000E-01 0.500 F 0.077 -0.219 21.5 V 0.70 0.19 o 691 0.69 Yes Yes
2010FF10 O C 2010-03-20.32686 1.000E-05 13:38:05.310 1.500E-01 0.500 F 0.213 -0.288 -03° 46' 09.40" 1.000E-01 0.500 F -0.005 0.137 20.6 V 0.70 -0.78 o 691 0.64 Yes Yes
2010FO92 O C 2010-03-20.32933 1.000E-05 13:39:28.100 1.500E-01 0.500 F 0.235 0.084 -03° 05' 54.00" 1.000E-01 0.500 F 0.077 -0.093 20.9 V 0.70 -0.40 o 691 0.25 Yes Yes
2010FF10 O C 2010-03-20.34455 1.000E-05 13:38:06.540 1.500E-01 0.500 F 0.213 -0.144 -03° 45' 56.10" 1.000E-01 0.500 F -0.005 -0.113 21.1 V 0.70 -0.27 o 691 0.37 Yes Yes
2010FO92 O C 2010-03-20.34702 1.000E-05 13:39:27.790 1.500E-01 0.500 F 0.235 -0.111 -03° 05' 40.80" 1.000E-01 0.500 F 0.077 -0.189 21.2 V 0.70 -0.10 o 691 0.44 Yes Yes
2004FE31 O C H 2010-03-20.36386 1.000E-05 13:43:50.800 1.500E-01 0.500 F 0.240 0.314 -13° 03' 57.40" 1.000E-01 0.500 F 0.099 -0.070 o 691 0.64 Yes No
2004FE31 O C H 2010-03-20.39930 1.000E-05 13:43:48.720 1.500E-01 0.500 F 0.240 -0.059 -13° 03' 35.00" 1.000E-01 0.500 F 0.099 0.070 21.5 V 0.70 0.72 o 691 0.18 Yes Yes
1997TD O C 2010-03-21.15581 1.000E-05 12:30:10.190 1.500E-01 0.500 F 0.155 -0.308 +05° 39' 08.50" 1.000E-01 0.500 F 0.118 -0.116 20.1 V 0.70 0.32 o 691 0.66 Yes Yes
1997TD O C 2010-03-21.17349 1.000E-05 12:30:09.140 1.500E-01 0.500 F 0.155 -0.714 +05° 39' 18.40" 1.000E-01 0.500 F 0.118 -0.967 20.1 V 0.70 0.32 o 691 2.41 Yes Yes
1997TD O C 2010-03-21.19119 1.000E-05 12:30:08.170 1.500E-01 0.500 F 0.155 0.136 +05° 39' 30.00" 1.000E-01 0.500 F 0.118 -0.127 20.3 V 0.70 0.52 o 691 0.37 Yes Yes
2010EQ43 O C 2010-03-21.21815 1.000E-05 12:33:14.500 1.500E-01 0.500 F 0.138 -0.020 -01° 40' 51.50" 1.000E-01 0.500 F 0.183 -0.084 19.8 V 0.70 -0.19 o 691 0.17 Yes Yes
1999FP59 O C H 2010-03-21.23090 1.000E-05 12:21:32.210 1.500E-01 0.500 F 0.177 -0.208 -01° 12' 23.00" 1.000E-01 0.500 F 0.046 -0.481 20.3 V 0.70 0.46 o 691 1.05 Yes Yes
2010EQ43 O C 2010-03-21.23584 1.000E-05 12:33:11.740 1.500E-01 0.500 F 0.138 -0.185 -01° 41' 08.00" 1.000E-01 0.500 F 0.183 0.100 19.8 V 0.70 -0.19 o 691 0.42 Yes Yes
1999FP59 O C H 2010-03-21.24859 1.000E-05 12:21:30.740 1.500E-01 0.500 F 0.177 -0.209 -01° 12' 14.40" 1.000E-01 0.500 F 0.046 0.056 20.3 V 0.70 0.46 o 691 0.43 Yes Yes
2010EQ43 O C 2010-03-21.25353 1.000E-05 12:33:08.990 1.500E-01 0.500 F 0.138 -0.127 -01° 41' 25.10" 1.000E-01 0.500 F 0.183 -0.313 20.2 V 0.70 0.21 o 691 0.68 Yes Yes
2005YU55 O C 2010-03-21.33291 1.000E-05 13:46:28.410 1.500E-01 0.500 F 0.138 -0.233 -09° 27' 18.60" 1.000E-01 0.500 F 0.059 0.070 20.2 V 0.70 0.18 o 691 0.49 Yes Yes
2005YU55 O C 2010-03-21.35061 1.000E-05 13:46:28.160 1.500E-01 0.500 F 0.138 -0.364 -09° 27' 17.00" 1.000E-01 0.500 F 0.059 0.249 20.1 V 0.70 0.08 o 691 0.88 Yes Yes
2005YU55 O C 2010-03-21.36831 1.000E-05 13:46:27.920 1.500E-01 0.500 F 0.138 -0.236 -09° 27' 15.70" 1.000E-01 0.500 F 0.059 0.058 20.0 V 0.70 -0.01 o 691 0.49 Yes Yes
2010FP9 O C t 2010-03-25.21633 1.000E-05 12:38:53.400 1.500E-01 0.500 F 0.229 0.574 -06° 59' 52.30" 1.000E-01 0.500 F 0.146 -0.850 o 691 2.14 Yes No
2010FP9 O C t 2010-03-25.23402 1.000E-05 12:38:52.690 1.500E-01 0.500 F 0.229 0.019 -07° 00' 34.70" 1.000E-01 0.500 F 0.146 -1.062 o 691 2.26 Yes No
2010FS9 O C t 2010-03-25.32376 1.000E-05 13:38:20.930 1.500E-01 0.500 F 0.192 -0.331 -08° 55' 45.40" 1.000E-01 0.500 F 0.066 0.306 19.0 V 0.70 -0.23 o 691 0.99 Yes Yes
2005YU55 O C 2010-03-25.32623 1.000E-05 13:45:55.760 1.500E-01 0.500 F 0.138 -0.053 -09° 18' 01.10" 1.000E-01 0.500 F 0.059 0.119 19.6 V 0.70 0.07 o 691 0.26 Yes Yes
2010FU O C t 2010-03-25.32623 1.000E-05 13:42:46.290 1.500E-01 0.500 F 0.205 0.302 -09° 02' 50.80" 1.000E-01 0.500 F 0.094 -0.760 o 691 1.75 Yes No
2010FS9 O C t 2010-03-25.34146 1.000E-05 13:38:41.510 1.500E-01 0.500 F 0.205 0.451 -08° 59' 29.70" 1.000E-01 0.500 F 0.094 -0.170 19.1 V 0.70 -0.13 o 691 1.05 Yes Yes
2005YU55 O C 2010-03-25.34393 1.000E-05 13:45:55.160 1.500E-01 0.500 F 0.138 -0.674 -09° 17' 57.70" 1.000E-01 0.500 F 0.059 0.233 19.6 V 0.70 0.07 o 691 1.43 Yes Yes
2010FU O C t 2010-03-25.34393 1.000E-05 13:42:45.580 1.500E-01 0.500 F 0.205 -0.476 -09° 08' 46.30" 1.000E-01 0.500 F 0.094 -2.204 o 691 4.24 No No
2010FS9 O C t 2010-03-25.35917 1.000E-05 13:39:01.990 1.500E-01 0.500 F 0.205 -0.357 -09° 03' 13.30" 1.000E-01 0.500 F 0.094 -0.005 19.0 V 0.70 -0.23 o 691 0.77 Yes Yes
2005YU55 O C 2010-03-25.36163 1.000E-05 13:45:54.620 1.500E-01 0.500 F 0.138 -0.286 -09° 17' 54.50" 1.000E-01 0.500 F 0.059 0.065 19.6 V 0.70 0.07 o 691 0.59 Yes Yes
2010FU O C t 2010-03-25.36163 1.000E-05 13:42:44.950 1.500E-01 0.500 F 0.205 0.350 -09° 14' 37.60" 1.000E-01 0.500 F 0.094 -0.422 o 691 1.17 Yes No
2010DJ56 O C H 2010-03-25.51030 1.000E-05 17:42:35.530 1.500E-01 0.500 F 0.029 -0.177 +37° 54' 50.90" 1.000E-01 0.500 F 0.271 -0.463 21.1 V 0.70 0.24 o 691 0.99 Yes Yes
2010DJ56 O C H 2010-03-25.51775 1.000E-05 17:42:36.070 1.500E-01 0.500 F 0.029 -0.251 +37° 55' 06.50" 1.000E-01 0.500 F 0.271 -0.063 20.8 V 0.70 -0.06 o 691 0.52 Yes Yes
2005SC71 O C H 2010-03-26.33939 1.000E-05 13:50:26.080 1.500E-01 0.500 F 0.227 -0.574 -10° 14' 58.00" 1.000E-01 0.500 F 0.167 -0.542 20.4 V 0.70 -0.16 o 691 1.59 Yes Yes
2004FE31 O C 2010-03-26.34203 1.000E-05 13:37:42.800 1.500E-01 0.500 F 0.212 -0.701 -11° 55' 29.00" 1.000E-01 0.500 F 0.100 0.229 21.0 V 0.70 0.46 o 691 1.48 Yes Yes
2005SC71 O C H 2010-03-26.35712 1.000E-05 13:50:25.290 1.500E-01 0.500 F 0.227 -0.712 -10° 14' 29.80" 1.000E-01 0.500 F 0.167 0.180 20.4 V 0.70 -0.16 o 691 1.48 Yes Yes
2004FE31 O C 2010-03-26.35976 1.000E-05 13:37:41.580 1.500E-01 0.500 F 0.212 -0.304 -11° 55' 15.80" 1.000E-01 0.500 F 0.100 0.231 20.5 V 0.70 -0.04 o 691 0.77 Yes Yes
2005SC71 O C H 2010-03-26.37484 1.000E-05 13:50:24.530 1.500E-01 0.500 F 0.227 -0.393 -10° 14' 03.00" 1.000E-01 0.500 F 0.167 -0.510 o 691 1.30 Yes No
2004FE31 O C 2010-03-26.37748 1.000E-05 13:37:40.380 1.500E-01 0.500 F 0.212 0.389 -11° 55' 03.20" 1.000E-01 0.500 F 0.100 -0.381 20.4 V 0.70 -0.14 o 691 1.09 Yes Yes
2010FS9 O C t 2010-03-26.40149 1.000E-05 14:01:00.580 1.500E-01 0.500 F 0.260 0.146 -12° 43' 42.80" 1.000E-01 0.500 F 0.107 -0.572 19.0 V 0.70 -0.35 o 691 1.29 Yes Yes
2010FS9 O C t 2010-03-26.43696 1.000E-05 14:01:44.220 1.500E-01 0.500 F 0.260 0.007 -12° 51' 10.40" 1.000E-01 0.500 F 0.107 -0.132 19.2 V 0.70 -0.15 o 691 0.29 Yes Yes
2005YU55 O C 2010-04-03.22974 1.000E-05 13:39:32.790 1.500E-01 0.500 F 0.192 -0.308 -08° 20' 18.00" 1.000E-01 0.500 F 0.066 0.106 o 691 0.65 Yes No
2004FE31 O C H 2010-04-03.23743 1.000E-05 13:27:55.810 1.500E-01 0.500 F 0.255 2.336 -10° 08' 09.00" 1.000E-01 0.500 F 0.044 1.601 o 691 5.66 No No
2005YU55 O C 2010-04-03.24741 1.000E-05 13:39:31.010 1.500E-01 0.500 F 0.192 -0.353 -08° 20' 06.70" 1.000E-01 0.500 F 0.066 0.139 o 691 0.76 Yes No
2004FE31 O C H 2010-04-03.25508 1.000E-05 13:27:54.130 1.500E-01 0.500 F 0.255 -0.855 -10° 07' 54.20" 1.000E-01 0.500 F 0.044 0.925 20.6 V 0.70 0.41 o 691 2.52 Yes Yes
2005YU55 O C 2010-04-03.26506 1.000E-05 13:39:29.200 1.500E-01 0.500 F 0.192 -0.376 -08° 19' 55.30" 1.000E-01 0.500 F 0.066 0.170 o 691 0.82 Yes No
2004FE31 O C H 2010-04-03.27274 1.000E-05 13:27:52.680 1.500E-01 0.500 F 0.255 -0.588 -10° 07' 39.70" 1.000E-01 0.500 F 0.044 -0.076 20.6 V 0.70 0.41 o 691 1.19 Yes Yes
2000TJ1 O C H 2010-04-03.42168 1.000E-05 18:43:50.520 1.500E-01 0.500 F 0.014 -6.908 +21° 10' 49.30" 1.000E-01 0.500 F 0.241 0.115 20.9 V 0.70 0.66 o 691 13.57 No Yes
2000TJ1 O C t 2010-04-03.44040 1.000E-05 18:43:54.700 1.500E-01 0.500 F 0.014 -6.358 +21° 12' 34.90" 1.000E-01 0.500 F 0.241 0.094 20.5 V 0.70 0.26 o 691 12.49 No Yes
2000TJ1 O C H 2010-04-03.45912 1.000E-05 18:43:58.720 1.500E-01 0.500 F 0.014 -7.870 +21° 14' 21.70" 1.000E-01 0.500 F 0.241 1.379 20.5 V 0.70 0.26 o 691 15.71 No Yes
2005SC71 O C 2010-04-04.21039 1.000E-05 13:43:08.200 1.500E-01 0.500 F 0.171 -0.336 -06° 02' 44.80" 1.000E-01 0.500 F -0.030 0.430 20.5 V 0.70 0.38 o 691 1.10 Yes Yes
2005SC71 O C 2010-04-04.22804 1.000E-05 13:43:07.140 1.500E-01 0.500 F 0.171 -0.455 -06° 02' 12.50" 1.000E-01 0.500 F -0.030 0.142 20.3 V 0.70 0.18 o 691 0.96 Yes Yes
2005SC71 O C 2010-04-04.24566 1.000E-05 13:43:06.080 1.500E-01 0.500 F 0.171 -0.526 -06° 01' 39.80" 1.000E-01 0.500 F -0.030 0.293 20.6 V 0.70 0.48 o 691 1.21 Yes Yes
2010GZ5 O C 2010-04-04.26054 1.000E-05 14:51:27.620 1.500E-01 0.500 F 0.165 0.089 -08° 35' 04.30" 1.000E-01 0.500 F 0.176 -0.438 20.4 V 0.70 -0.56 o 691 0.92 Yes Yes
2010GZ5 O C 2010-04-04.27821 1.000E-05 14:51:30.490 1.500E-01 0.500 F 0.165 -0.043 -08° 34' 26.90" 1.000E-01 0.500 F 0.176 0.344 20.5 V 0.70 -0.45 o 691 0.71 Yes Yes
2010GZ5 O C 2010-04-04.29588 1.000E-05 14:51:33.380 1.500E-01 0.500 F 0.165 0.358 -08° 33' 50.10" 1.000E-01 0.500 F 0.176 0.401 20.7 V 0.70 -0.25 o 691 1.11 Yes Yes
2000DK79 O C H 2010-04-04.38382 1.000E-05 15:48:11.450 1.500E-01 0.500 F 0.006 -0.362 -17° 17' 39.60" 1.000E-01 0.500 F 0.108 -0.027 19.6 V 0.70 -0.40 o 691 0.73 Yes Yes
2000DK79 O C H 2010-04-04.41927 1.000E-05 15:48:08.460 1.500E-01 0.500 F 0.006 -0.561 -17° 18' 00.60" 1.000E-01 0.500 F 0.108 -0.315 20.0 V 0.70 0.00 o 691 1.29 Yes Yes
2010GT6 O C 2010-04-05.24434 1.000E-05 13:05:00.700 1.500E-01 0.500 F 0.010 -0.151 -13° 34' 42.40" 1.000E-01 0.500 F 0.117 0.188 20.2 V 0.70 0.35 o 691 0.50 Yes Yes
2008DK5 O C H 2010-04-05.24434 1.000E-05 13:05:57.850 1.500E-01 0.500 F 0.010 1.209 -13° 18' 54.30" 1.000E-01 0.500 F 0.117 -0.924 o 691 3.05 Yes No
2010GT6 O C 2010-04-05.25956 1.000E-05 13:04:57.260 1.500E-01 0.500 F 0.010 -0.333 -13° 34' 58.40" 1.000E-01 0.500 F 0.117 0.042 19.9 V 0.70 0.05 o 691 0.69 Yes Yes
2008DK5 O C H 2010-04-05.25956 1.000E-05 13:05:55.410 1.500E-01 0.500 F 0.010 0.591 -13° 18' 41.40" 1.000E-01 0.500 F 0.117 -0.450 21.5 V 0.70 -0.07 o 691 1.49 Yes Yes
2010GT6 O C 2010-04-05.27477 1.000E-05 13:04:53.840 1.500E-01 0.500 F 0.010 -0.120 -13° 35' 14.20" 1.000E-01 0.500 F 0.117 0.044 19.8 V 0.70 -0.05 o 691 0.26 Yes Yes
2008DK5 O C H 2010-04-05.27477 1.000E-05 13:05:53.020 1.500E-01 0.500 F 0.010 0.709 -13° 18' 28.10" 1.000E-01 0.500 F 0.117 0.409 o 691 1.65 Yes No
2010GZ5 O C 2010-04-06.40910 1.000E-05 14:58:16.740 1.500E-01 0.500 F 0.219 0.094 -07° 09' 41.90" 1.000E-01 0.500 F 0.089 0.170 20.3 V 0.70 -0.35 o 691 0.40 Yes Yes
2010GZ5 O C 2010-04-06.41200 1.000E-05 14:58:17.330 1.500E-01 0.500 F 0.219 0.484 -07° 09' 33.80" 1.000E-01 0.500 F 0.089 0.399 20.3 V 0.70 -0.35 o 691 1.28 Yes Yes
2010GZ5 O C 2010-04-06.41535 1.000E-05 14:58:17.930 1.500E-01 0.500 F 0.219 -0.283 -07° 09' 25.10" 1.000E-01 0.500 F 0.089 0.002 19.9 V 0.70 -0.75 o 691 0.58 Yes Yes
2013BY45 O C H 2010-04-06.45289 1.000E-05 14:12:00.890 1.500E-01 0.500 F 0.059 -0.102 +42° 10' 39.60" 1.000E-01 0.500 F 0.137 -0.006 21.1 V 0.70 -0.42 o 691 0.21 Yes Yes
2013BY45 O C H 2010-04-06.45720 1.000E-05 14:12:00.520 1.500E-01 0.500 F 0.059 -0.464 +42° 10' 41.20" 1.000E-01 0.500 F 0.137 -0.240 20.8 V 0.70 -0.72 o 691 1.06 Yes Yes
2013BY45 O C H 2010-04-06.46141 1.000E-05 14:12:00.150 1.500E-01 0.500 F 0.059 -0.916 +42° 10' 42.50" 1.000E-01 0.500 F 0.137 -0.727 20.6 V 0.70 -0.92 o 691 2.37 Yes Yes
2010GG7 O C H 2010-04-06.46715 1.000E-05 15:03:26.950 1.500E-01 0.500 F 0.047 0.653 +42° 03' 09.10" 1.000E-01 0.500 F 0.104 -0.159 20.9 V 0.70 -0.38 o 691 1.40 Yes Yes
2010GG7 O C H 2010-04-06.47054 1.000E-05 15:03:27.220 1.500E-01 0.500 F 0.047 -0.290 +42° 03' 12.40" 1.000E-01 0.500 F 0.104 -0.350 20.9 V 0.70 -0.38 o 691 0.95 Yes Yes
2010GG7 O C H 2010-04-06.47422 1.000E-05 15:03:27.690 1.500E-01 0.500 F 0.047 0.651 +42° 03' 15.90" 1.000E-01 0.500 F 0.104 -0.631 20.8 V 0.70 -0.48 o 691 1.88 Yes Yes
Beowulf O C 2010-04-07.14261 1.000E-05 07:10:09.820 1.500E-01 0.500 F -0.143 -0.250 +09° 32' 08.80" 1.000E-01 0.500 F 0.077 -0.150 21.0 V 0.70 -0.20 o 691 0.58 Yes Yes
Beowulf O C 2010-04-07.15592 1.000E-05 07:10:10.850 1.500E-01 0.500 F -0.143 -0.715 +09° 32' 16.70" 1.000E-01 0.500 F 0.077 -0.215 21.1 V 0.70 -0.10 o 691 1.50 Yes Yes
Beowulf O C 2010-04-07.16924 1.000E-05 07:10:11.910 1.500E-01 0.500 F -0.143 -0.767 +09° 32' 24.70" 1.000E-01 0.500 F 0.077 -0.178 20.9 V 0.70 -0.30 o 691 1.58 Yes Yes
2010FC81 O C H 2010-04-07.21775 1.000E-05 07:13:23.800 1.500E-01 0.500 F -0.047 0.604 +27° 20' 11.90" 1.000E-01 0.500 F 0.166 -0.801 o 691 2.02 Yes No
2010FC81 O C H 2010-04-07.22840 1.000E-05 07:13:24.470 1.500E-01 0.500 F -0.047 0.040 +27° 20' 18.10" 1.000E-01 0.500 F 0.166 -0.327 o 691 0.66 Yes No
2010FC81 O C H 2010-04-07.23904 1.000E-05 07:13:25.140 1.500E-01 0.500 F -0.047 -0.648 +27° 20' 24.00" 1.000E-01 0.500 F 0.166 -0.113 21.0 V 0.70 -0.42 o 691 1.32 Yes Yes
Toutatis O C 2010-04-07.26122 1.000E-05 13:52:18.430 1.500E-01 0.500 F 0.205 0.117 -10° 53' 59.90" 1.000E-01 0.500 F 0.111 -0.612 21.4 V 0.70 0.67 o 691 1.25 Yes Yes
Toutatis O C 2010-04-07.27888 1.000E-05 13:52:17.440 1.500E-01 0.500 F 0.205 -0.783 -10° 53' 54.00" 1.000E-01 0.500 F 0.111 0.229 20.9 V 0.70 0.17 o 691 1.63 Yes Yes
Toutatis O C 2010-04-07.29653 1.000E-05 13:52:16.490 1.500E-01 0.500 F 0.205 -1.088 -10° 53' 49.00" 1.000E-01 0.500 F 0.111 0.166 20.9 V 0.70 0.17 o 691 2.20 Yes Yes
2010GU6 O C 2010-04-07.31553 1.000E-05 15:03:24.240 1.500E-01 0.500 F 0.267 -0.198 -10° 54' 10.70" 1.000E-01 0.500 F 0.133 0.001 19.4 V 0.70 -0.14 o 691 0.41 Yes Yes
Miwablock O C 2010-04-07.31800 1.000E-05 15:08:06.360 1.500E-01 0.500 F 0.116 -0.287 -10° 09' 30.70" 1.000E-01 0.500 F 0.061 0.137 19.7 V 0.70 0.25 o 691 0.64 Yes Yes

[1-200] [201-400] [401-600] [601-800] [801-1000] [1001-1200] [1201-1400] [1401-1600] [1601-1800] [1801-2000] [2001-2200] [2201-2400] [2401-2600] [2601-2800] [2801-3000] [3001-3200] [3201-3400] [3401-3600] [3601-3800] [3801-4000] [4001-4200] [4201-4400] [4401-4600] [4601-4800] [4801-5000] [5001-5200] [5201-5400] [5401-5600] [5601-5800] [5801-6000] [6001-6200] [6201-6400] [6401-6600] [6601-6800] [6801-7000] [7001-7200] [7201-7400] [7401-7600] [7601-7800] [7801-8000] [8001-8200] [8201-8400] [8401-8600] [8601-8800] [8801-9000] [9001-9200] [9201-9400] [9401-9600] [9601-9800] [9801-10000] [10001-10200] [10201-10400] [10401-10600] [10601-10800] [10801-11000] [11001-11200] [11201-11400] [11401-11600] [11601-11800] [11801-12000] [12001-12200] [12201-12400] [12401-12600] [12601-12800] [12801-13000] [13001-13200] [13201-13400] [13401-13600] [13601-13800] [13801-14000] [14001-14200] [14201-14400] [14401-14600] [14601-14800] [14801-15000] [15001-15200] [15201-15400] [15401-15600] [15601-15800] [15801-16000] [16001-16200] [16201-16400] [16401-16600] [16601-16800] [16801-17000] [17001-17200] [17201-17400] [17401-17600] [17601-17800] [17801-18000] [18001-18200] [18201-18400] [18401-18600] [18601-18800] [18801-19000] [19001-19200] [19201-19400] [19401-19600] [19601-19800] [19801-20000] [20001-20200] [20201-20400] [20401-20600] [20601-20800] [20801-21000] [21001-21200] [21201-21400] [21401-21600] [21601-21800] [21801-22000] [22001-22200] [22201-22400] [22401-22600] [22601-22800] [22801-23000] [23001-23200] [23201-23400] [23401-23600] [23601-23800] [23801-24000] [24001-24200] [24201-24400] [24401-24600] [24601-24800] [24801-25000] [25001-25200] [25201-25400] [25401-25600] [25601-25800] [25801-26000] [26001-26200] [26201-26400] [26401-26600] [26601-26800] [26801-27000] [27001-27200] [27201-27400] [27401-27600] [27601-27800] [27801-28000] [28001-28200] [28201-28400] [28401-28600] [28601-28800] [28801-29000] [29001-29200] [29201-29400] [29401-29600] [29601-29800] [29801-30000] [30001-30200] [30201-30400] [30401-30600] [30601-30800] [30801-31000] [31001-31200] [31201-31400] [31401-31600] [31601-31800] [31801-32000] [32001-32200] [32201-32400] [32401-32600] [32601-32800] [32801-33000] [33001-33200] [33201-33400] [33401-33600] [33601-33800] [33801-34000] [34001-34200] [34201-34400] [34401-34600] [34601-34800] [34801-35000] [35001-35200] [35201-35400] [35401-35600] [35601-35800] [35801-36000] [36001-36200] [36201-36400] [36401-36600] [36601-36800] [36801-37000] [37001-37200] [37201-37400] [37401-37600] [37601-37800] [37801-38000] [38001-38200] [38201-38400] [38401-38600] [38601-38800] [38801-39000] [39001-39200] [39201-39400] [39401-39600] [39601-39800] [39801-40000] [40001-40200] [40201-40400] [40401-40600] [40601-40800] [40801-41000] [41001-41200] [41201-41400] [41401-41600] [41601-41800] [41801-42000] [42001-42200] [42201-42400] [42401-42600] [42601-42800] [42801-43000] [43001-43200] [43201-43400] [43401-43600] [43601-43800] [43801-44000] [44001-44200] [44201-44400] [44401-44600] [44601-44800] [44801-45000] [45001-45200] [45201-45400] [45401-45600] [45601-45800] [45801-46000] [46001-46200] [46201-46400] [46401-46600] [46601-46800] [46801-47000] [47001-47200] [47201-47400] [47401-47600] [47601-47800] [47801-48000] [48001-48200] [48201-48400] [48401-48600] [48601-48800] [48801-49000] [49001-49200] [49201-49400] [49401-49600] [49601-49800] [49801-50000] [50001-50200] [50201-50388]